sensor_id;sensor_type;location;lat;lon;timestamp;temperature;humidity
53844;DHT22;39744;53.314;5.710;2023-02-22T00:00:55;7.30;99.90
53844;DHT22;39744;53.314;5.710;2023-02-22T00:03:28;7.30;99.90
53844;DHT22;39744;53.314;5.710;2023-02-22T00:06:04;7.30;99.90
53844;DHT22;39744;53.314;5.710;2023-02-22T00:08:33;7.30;99.90
53844;DHT22;39744;53.314;5.710;2023-02-22T00:11:00;7.30;99.90
53844;DHT22;39744;53.314;5.710;2023-02-22T00:13:27;7.30;99.90
53844;DHT22;39744;53.314;5.710;2023-02-22T00:15:55;7.30;99.90
53844;DHT22;39744;53.314;5.710;2023-02-22T00:18:20;7.30;99.90
53844;DHT22;39744;53.314;5.710;2023-02-22T00:20:46;7.30;99.90
53844;DHT22;39744;53.314;5.710;2023-02-22T00:23:18;7.30;99.90
53844;DHT22;39744;53.314;5.710;2023-02-22T00:25:45;7.30;99.90
53844;DHT22;39744;53.314;5.710;2023-02-22T00:28:11;7.20;99.90
53844;DHT22;39744;53.314;5.710;2023-02-22T00:30:37;7.30;99.90
53844;DHT22;39744;53.314;5.710;2023-02-22T00:33:03;7.30;99.90
53844;DHT22;39744;53.314;5.710;2023-02-22T00:35:30;7.30;99.90
53844;DHT22;39744;53.314;5.710;2023-02-22T00:37:58;7.30;99.90
53844;DHT22;39744;53.314;5.710;2023-02-22T00:40:30;7.30;99.90
53844;DHT22;39744;53.314;5.710;2023-02-22T00:43:01;7.30;99.90
53844;DHT22;39744;53.314;5.710;2023-02-22T00:45:28;7.30;99.90
53844;DHT22;39744;53.314;5.710;2023-02-22T00:47:55;7.30;99.90
53844;DHT22;39744;53.314;5.710;2023-02-22T00:50:22;7.30;99.90
53844;DHT22;39744;53.314;5.710;2023-02-22T00:52:48;7.30;99.90
53844;DHT22;39744;53.314;5.710;2023-02-22T00:55:29;7.30;99.90
53844;DHT22;39744;53.314;5.710;2023-02-22T00:57:55;7.30;99.90
53844;DHT22;39744;53.314;5.710;2023-02-22T01:00:36;7.30;99.90
53844;DHT22;39744;53.314;5.710;2023-02-22T01:03:08;7.30;99.90
53844;DHT22;39744;53.314;5.710;2023-02-22T01:05:35;7.30;99.90
53844;DHT22;39744;53.314;5.710;2023-02-22T01:08:02;7.30;99.90
53844;DHT22;39744;53.314;5.710;2023-02-22T01:10:29;7.30;99.90
53844;DHT22;39744;53.314;5.710;2023-02-22T01:12:56;7.30;99.90
53844;DHT22;39744;53.314;5.710;2023-02-22T01:15:24;7.30;99.90
53844;DHT22;39744;53.314;5.710;2023-02-22T01:17:51;7.30;99.90
53844;DHT22;39744;53.314;5.710;2023-02-22T01:20:19;7.30;99.90
53844;DHT22;39744;53.314;5.710;2023-02-22T01:22:47;7.30;99.90
53844;DHT22;39744;53.314;5.710;2023-02-22T01:25:19;7.30;99.90
53844;DHT22;39744;53.314;5.710;2023-02-22T01:27:45;7.30;99.90
53844;DHT22;39744;53.314;5.710;2023-02-22T01:30:16;7.30;99.90
53844;DHT22;39744;53.314;5.710;2023-02-22T01:32:42;7.30;99.90
53844;DHT22;39744;53.314;5.710;2023-02-22T01:35:14;7.30;99.90
53844;DHT22;39744;53.314;5.710;2023-02-22T01:37:43;7.30;99.90
53844;DHT22;39744;53.314;5.710;2023-02-22T01:40:15;7.30;99.90
53844;DHT22;39744;53.314;5.710;2023-02-22T01:42:41;7.30;99.90
53844;DHT22;39744;53.314;5.710;2023-02-22T01:48:08;7.20;99.90
53844;DHT22;39744;53.314;5.710;2023-02-22T01:50:43;7.20;99.90
53844;DHT22;39744;53.314;5.710;2023-02-22T01:53:13;7.20;99.90
53844;DHT22;39744;53.314;5.710;2023-02-22T01:55:40;7.20;99.90
53844;DHT22;39744;53.314;5.710;2023-02-22T01:58:06;7.20;99.90
53844;DHT22;39744;53.314;5.710;2023-02-22T02:00:33;7.20;99.90
53844;DHT22;39744;53.314;5.710;2023-02-22T02:03:02;7.20;99.90
53844;DHT22;39744;53.314;5.710;2023-02-22T02:05:30;7.20;99.90
53844;DHT22;39744;53.314;5.710;2023-02-22T02:07:58;7.20;99.90
53844;DHT22;39744;53.314;5.710;2023-02-22T02:10:28;7.20;99.90
53844;DHT22;39744;53.314;5.710;2023-02-22T02:12:54;7.20;99.90
53844;DHT22;39744;53.314;5.710;2023-02-22T02:15:32;7.20;99.90
53844;DHT22;39744;53.314;5.710;2023-02-22T02:18:00;7.20;99.90
53844;DHT22;39744;53.314;5.710;2023-02-22T02:37:09;7.20;99.90
53844;DHT22;39744;53.314;5.710;2023-02-22T02:42:42;7.20;99.90
53844;DHT22;39744;53.314;5.710;2023-02-22T02:45:22;7.20;99.90
53844;DHT22;39744;53.314;5.710;2023-02-22T02:47:54;7.20;99.90
53844;DHT22;39744;53.314;5.710;2023-02-22T02:50:26;7.20;99.90
53844;DHT22;39744;53.314;5.710;2023-02-22T02:52:56;7.20;99.90
53844;DHT22;39744;53.314;5.710;2023-02-22T02:55:23;7.20;99.90
53844;DHT22;39744;53.314;5.710;2023-02-22T02:57:49;7.20;99.90
53844;DHT22;39744;53.314;5.710;2023-02-22T03:00:19;7.20;99.90
53844;DHT22;39744;53.314;5.710;2023-02-22T03:03:08;7.20;99.90
53844;DHT22;39744;53.314;5.710;2023-02-22T03:08:38;7.20;99.90
53844;DHT22;39744;53.314;5.710;2023-02-22T03:11:10;7.20;99.90
53844;DHT22;39744;53.314;5.710;2023-02-22T03:14:21;7.20;99.90
53844;DHT22;39744;53.314;5.710;2023-02-22T03:17:20;7.20;99.90
53844;DHT22;39744;53.314;5.710;2023-02-22T03:19:53;7.20;99.90
53844;DHT22;39744;53.314;5.710;2023-02-22T03:22:25;7.20;99.90
53844;DHT22;39744;53.314;5.710;2023-02-22T03:24:54;7.20;99.90
53844;DHT22;39744;53.314;5.710;2023-02-22T03:27:36;7.20;99.90
53844;DHT22;39744;53.314;5.710;2023-02-22T03:30:15;7.20;99.90
53844;DHT22;39744;53.314;5.710;2023-02-22T03:32:46;7.20;99.90
53844;DHT22;39744;53.314;5.710;2023-02-22T03:35:18;7.20;99.90
53844;DHT22;39744;53.314;5.710;2023-02-22T03:37:49;7.20;99.90
53844;DHT22;39744;53.314;5.710;2023-02-22T03:40:21;7.20;99.90
53844;DHT22;39744;53.314;5.710;2023-02-22T03:42:58;7.20;99.90
53844;DHT22;39744;53.314;5.710;2023-02-22T03:45:26;7.20;99.90
53844;DHT22;39744;53.314;5.710;2023-02-22T03:48:03;7.20;99.90
53844;DHT22;39744;53.314;5.710;2023-02-22T03:50:33;7.20;99.90
53844;DHT22;39744;53.314;5.710;2023-02-22T03:53:01;7.20;99.90
53844;DHT22;39744;53.314;5.710;2023-02-22T03:55:27;7.20;99.90
53844;DHT22;39744;53.314;5.710;2023-02-22T03:57:58;7.20;99.90
53844;DHT22;39744;53.314;5.710;2023-02-22T04:00:27;7.20;99.90
53844;DHT22;39744;53.314;5.710;2023-02-22T04:02:54;7.20;99.90
53844;DHT22;39744;53.314;5.710;2023-02-22T04:05:20;7.20;99.90
53844;DHT22;39744;53.314;5.710;2023-02-22T04:07:46;7.20;99.90
53844;DHT22;39744;53.314;5.710;2023-02-22T04:10:12;7.20;99.90
53844;DHT22;39744;53.314;5.710;2023-02-22T04:12:39;7.20;99.90
53844;DHT22;39744;53.314;5.710;2023-02-22T04:15:06;7.20;99.90
53844;DHT22;39744;53.314;5.710;2023-02-22T04:17:32;7.20;99.90
53844;DHT22;39744;53.314;5.710;2023-02-22T04:19:58;7.20;99.90
53844;DHT22;39744;53.314;5.710;2023-02-22T04:22:23;7.20;99.90
53844;DHT22;39744;53.314;5.710;2023-02-22T04:24:49;7.20;99.90
53844;DHT22;39744;53.314;5.710;2023-02-22T04:27:15;7.20;99.90
53844;DHT22;39744;53.314;5.710;2023-02-22T04:29:41;7.20;99.90
53844;DHT22;39744;53.314;5.710;2023-02-22T04:32:07;7.20;99.90
53844;DHT22;39744;53.314;5.710;2023-02-22T04:34:32;7.20;99.90
53844;DHT22;39744;53.314;5.710;2023-02-22T04:36:58;7.20;99.90
53844;DHT22;39744;53.314;5.710;2023-02-22T04:39:24;7.20;99.90
53844;DHT22;39744;53.314;5.710;2023-02-22T04:41:50;7.20;99.90
53844;DHT22;39744;53.314;5.710;2023-02-22T04:44:16;7.20;99.90
53844;DHT22;39744;53.314;5.710;2023-02-22T04:46:41;7.20;99.90
53844;DHT22;39744;53.314;5.710;2023-02-22T04:49:07;7.20;99.90
53844;DHT22;39744;53.314;5.710;2023-02-22T04:51:33;7.20;99.90
53844;DHT22;39744;53.314;5.710;2023-02-22T04:54:00;7.20;99.90
53844;DHT22;39744;53.314;5.710;2023-02-22T04:56:26;7.20;99.90
53844;DHT22;39744;53.314;5.710;2023-02-22T04:58:51;7.20;99.90
53844;DHT22;39744;53.314;5.710;2023-02-22T05:01:17;7.20;99.90
53844;DHT22;39744;53.314;5.710;2023-02-22T05:03:43;7.20;99.90
53844;DHT22;39744;53.314;5.710;2023-02-22T05:06:08;7.20;99.90
53844;DHT22;39744;53.314;5.710;2023-02-22T05:08:36;7.20;99.90
53844;DHT22;39744;53.314;5.710;2023-02-22T05:11:02;7.20;99.90
53844;DHT22;39744;53.314;5.710;2023-02-22T05:13:30;7.20;99.90
53844;DHT22;39744;53.314;5.710;2023-02-22T05:15:55;7.10;99.90
53844;DHT22;39744;53.314;5.710;2023-02-22T05:18:21;7.10;99.90
53844;DHT22;39744;53.314;5.710;2023-02-22T05:20:47;7.10;99.90
53844;DHT22;39744;53.314;5.710;2023-02-22T05:23:12;7.10;99.90
53844;DHT22;39744;53.314;5.710;2023-02-22T05:25:38;7.10;99.90
53844;DHT22;39744;53.314;5.710;2023-02-22T05:28:09;7.10;99.90
53844;DHT22;39744;53.314;5.710;2023-02-22T05:30:36;7.10;99.90
53844;DHT22;39744;53.314;5.710;2023-02-22T05:33:04;7.00;99.90
53844;DHT22;39744;53.314;5.710;2023-02-22T05:35:30;7.00;99.90
53844;DHT22;39744;53.314;5.710;2023-02-22T05:37:56;7.00;99.90
53844;DHT22;39744;53.314;5.710;2023-02-22T05:40:25;7.00;99.90
53844;DHT22;39744;53.314;5.710;2023-02-22T05:42:52;7.00;99.90
53844;DHT22;39744;53.314;5.710;2023-02-22T05:45:20;7.00;99.90
53844;DHT22;39744;53.314;5.710;2023-02-22T05:47:47;7.00;99.90
53844;DHT22;39744;53.314;5.710;2023-02-22T05:50:14;7.00;99.90
53844;DHT22;39744;53.314;5.710;2023-02-22T05:52:40;6.90;99.90
53844;DHT22;39744;53.314;5.710;2023-02-22T05:55:07;6.80;99.90
53844;DHT22;39744;53.314;5.710;2023-02-22T05:57:33;6.90;99.90
53844;DHT22;39744;53.314;5.710;2023-02-22T05:59:59;6.80;99.90
53844;DHT22;39744;53.314;5.710;2023-02-22T06:02:25;6.80;99.90
53844;DHT22;39744;53.314;5.710;2023-02-22T06:04:51;6.80;99.90
53844;DHT22;39744;53.314;5.710;2023-02-22T06:07:16;6.80;99.90
53844;DHT22;39744;53.314;5.710;2023-02-22T06:09:42;6.80;99.90
53844;DHT22;39744;53.314;5.710;2023-02-22T06:12:08;6.80;99.90
53844;DHT22;39744;53.314;5.710;2023-02-22T06:14:34;6.80;99.90
53844;DHT22;39744;53.314;5.710;2023-02-22T06:17:00;6.80;99.90
53844;DHT22;39744;53.314;5.710;2023-02-22T06:19:26;6.80;99.90
53844;DHT22;39744;53.314;5.710;2023-02-22T06:21:54;6.80;99.90
53844;DHT22;39744;53.314;5.710;2023-02-22T06:24:21;6.80;99.90
53844;DHT22;39744;53.314;5.710;2023-02-22T06:26:54;6.80;99.90
53844;DHT22;39744;53.314;5.710;2023-02-22T06:29:20;6.80;99.90
53844;DHT22;39744;53.314;5.710;2023-02-22T06:31:45;6.80;99.90
53844;DHT22;39744;53.314;5.710;2023-02-22T06:34:11;6.80;99.90
53844;DHT22;39744;53.314;5.710;2023-02-22T06:36:37;6.80;99.90
53844;DHT22;39744;53.314;5.710;2023-02-22T06:39:02;6.80;99.90
53844;DHT22;39744;53.314;5.710;2023-02-22T06:41:28;6.70;99.90
53844;DHT22;39744;53.314;5.710;2023-02-22T06:43:54;6.70;99.90
53844;DHT22;39744;53.314;5.710;2023-02-22T06:46:19;6.70;99.90
53844;DHT22;39744;53.314;5.710;2023-02-22T06:48:46;6.70;99.90
53844;DHT22;39744;53.314;5.710;2023-02-22T06:51:12;6.70;99.90
53844;DHT22;39744;53.314;5.710;2023-02-22T06:53:37;6.70;99.90
53844;DHT22;39744;53.314;5.710;2023-02-22T06:56:03;6.70;99.90
53844;DHT22;39744;53.314;5.710;2023-02-22T06:58:29;6.70;99.90
53844;DHT22;39744;53.314;5.710;2023-02-22T07:00:55;6.70;99.90
53844;DHT22;39744;53.314;5.710;2023-02-22T07:03:20;6.80;99.90
53844;DHT22;39744;53.314;5.710;2023-02-22T07:05:46;6.80;99.90
53844;DHT22;39744;53.314;5.710;2023-02-22T07:08:12;6.80;99.90
53844;DHT22;39744;53.314;5.710;2023-02-22T07:10:39;6.80;99.90
53844;DHT22;39744;53.314;5.710;2023-02-22T07:13:06;6.80;99.90
53844;DHT22;39744;53.314;5.710;2023-02-22T07:15:34;6.90;99.90
53844;DHT22;39744;53.314;5.710;2023-02-22T07:18:00;6.80;99.90
53844;DHT22;39744;53.314;5.710;2023-02-22T07:20:28;6.80;99.90
53844;DHT22;39744;53.314;5.710;2023-02-22T07:22:54;6.80;99.90
53844;DHT22;39744;53.314;5.710;2023-02-22T07:25:20;6.80;99.90
53844;DHT22;39744;53.314;5.710;2023-02-22T07:27:47;6.80;99.90
53844;DHT22;39744;53.314;5.710;2023-02-22T07:30:19;6.80;99.90
53844;DHT22;39744;53.314;5.710;2023-02-22T07:32:45;6.70;99.90
53844;DHT22;39744;53.314;5.710;2023-02-22T07:35:20;6.70;99.90
53844;DHT22;39744;53.314;5.710;2023-02-22T07:37:46;6.70;99.90
53844;DHT22;39744;53.314;5.710;2023-02-22T07:40:12;6.70;99.90
53844;DHT22;39744;53.314;5.710;2023-02-22T07:43:04;6.70;99.90
53844;DHT22;39744;53.314;5.710;2023-02-22T07:45:30;6.70;99.90
53844;DHT22;39744;53.314;5.710;2023-02-22T07:47:57;6.70;99.90
53844;DHT22;39744;53.314;5.710;2023-02-22T07:50:25;6.80;99.90
53844;DHT22;39744;53.314;5.710;2023-02-22T07:52:53;6.70;99.90
53844;DHT22;39744;53.314;5.710;2023-02-22T07:55:23;6.70;99.90
53844;DHT22;39744;53.314;5.710;2023-02-22T07:57:50;6.70;99.90
53844;DHT22;39744;53.314;5.710;2023-02-22T08:00:27;6.70;99.90
53844;DHT22;39744;53.314;5.710;2023-02-22T08:02:54;6.80;99.90
53844;DHT22;39744;53.314;5.710;2023-02-22T08:05:22;6.80;99.90
53844;DHT22;39744;53.314;5.710;2023-02-22T08:07:48;6.80;99.90
53844;DHT22;39744;53.314;5.710;2023-02-22T08:10:15;6.80;99.90
53844;DHT22;39744;53.314;5.710;2023-02-22T08:12:41;6.90;99.90
53844;DHT22;39744;53.314;5.710;2023-02-22T08:15:08;6.90;99.90
53844;DHT22;39744;53.314;5.710;2023-02-22T08:17:34;6.90;99.90
53844;DHT22;39744;53.314;5.710;2023-02-22T08:20:00;6.90;99.90
53844;DHT22;39744;53.314;5.710;2023-02-22T08:22:26;6.90;99.90
53844;DHT22;39744;53.314;5.710;2023-02-22T08:24:54;6.90;99.90
53844;DHT22;39744;53.314;5.710;2023-02-22T08:27:28;6.90;99.90
53844;DHT22;39744;53.314;5.710;2023-02-22T08:29:55;7.00;99.90
53844;DHT22;39744;53.314;5.710;2023-02-22T08:32:21;6.90;99.90
53844;DHT22;39744;53.314;5.710;2023-02-22T08:34:47;6.90;99.90
53844;DHT22;39744;53.314;5.710;2023-02-22T08:37:14;7.00;99.90
53844;DHT22;39744;53.314;5.710;2023-02-22T08:39:40;7.00;99.90
53844;DHT22;39744;53.314;5.710;2023-02-22T08:42:06;7.00;99.90
53844;DHT22;39744;53.314;5.710;2023-02-22T08:44:34;7.00;99.90
53844;DHT22;39744;53.314;5.710;2023-02-22T08:47:00;7.10;99.90
53844;DHT22;39744;53.314;5.710;2023-02-22T08:49:25;7.10;99.90
53844;DHT22;39744;53.314;5.710;2023-02-22T08:51:51;7.10;99.90
53844;DHT22;39744;53.314;5.710;2023-02-22T08:54:17;7.10;99.90
53844;DHT22;39744;53.314;5.710;2023-02-22T08:56:43;7.10;99.90
53844;DHT22;39744;53.314;5.710;2023-02-22T08:59:09;7.10;99.90
53844;DHT22;39744;53.314;5.710;2023-02-22T09:01:34;7.20;99.90
53844;DHT22;39744;53.314;5.710;2023-02-22T09:04:00;7.20;99.90
53844;DHT22;39744;53.314;5.710;2023-02-22T09:06:27;7.20;99.90
53844;DHT22;39744;53.314;5.710;2023-02-22T09:08:53;7.30;99.90
53844;DHT22;39744;53.314;5.710;2023-02-22T09:11:18;7.20;99.90
53844;DHT22;39744;53.314;5.710;2023-02-22T09:13:44;7.20;99.90
53844;DHT22;39744;53.314;5.710;2023-02-22T09:16:10;7.30;99.90
53844;DHT22;39744;53.314;5.710;2023-02-22T09:18:36;7.30;99.90
53844;DHT22;39744;53.314;5.710;2023-02-22T09:21:03;7.40;99.90
53844;DHT22;39744;53.314;5.710;2023-02-22T09:23:28;7.40;99.90
53844;DHT22;39744;53.314;5.710;2023-02-22T09:25:54;7.40;99.90
53844;DHT22;39744;53.314;5.710;2023-02-22T09:28:20;7.40;99.90
53844;DHT22;39744;53.314;5.710;2023-02-22T09:30:45;7.40;99.90
53844;DHT22;39744;53.314;5.710;2023-02-22T09:33:17;7.50;99.90
53844;DHT22;39744;53.314;5.710;2023-02-22T09:35:45;7.50;99.90
53844;DHT22;39744;53.314;5.710;2023-02-22T09:38:13;7.60;99.90
53844;DHT22;39744;53.314;5.710;2023-02-22T09:40:45;7.60;99.90
53844;DHT22;39744;53.314;5.710;2023-02-22T09:46:03;7.80;99.90
53844;DHT22;39744;53.314;5.710;2023-02-22T09:48:33;7.80;99.90
53844;DHT22;39744;53.314;5.710;2023-02-22T09:51:02;7.90;99.90
53844;DHT22;39744;53.314;5.710;2023-02-22T09:53:34;7.80;99.90
53844;DHT22;39744;53.314;5.710;2023-02-22T09:56:08;7.90;99.90
53844;DHT22;39744;53.314;5.710;2023-02-22T10:04:04;7.90;99.90
53844;DHT22;39744;53.314;5.710;2023-02-22T10:06:31;8.00;99.90
53844;DHT22;39744;53.314;5.710;2023-02-22T10:09:01;8.10;99.90
53844;DHT22;39744;53.314;5.710;2023-02-22T10:14:33;8.10;99.90
53844;DHT22;39744;53.314;5.710;2023-02-22T10:20:09;8.20;99.90
53844;DHT22;39744;53.314;5.710;2023-02-22T10:25:45;8.20;99.90
53844;DHT22;39744;53.314;5.710;2023-02-22T10:28:27;8.20;99.90
53844;DHT22;39744;53.314;5.710;2023-02-22T10:31:04;8.30;99.90
53844;DHT22;39744;53.314;5.710;2023-02-22T10:33:41;8.30;99.90
53844;DHT22;39744;53.314;5.710;2023-02-22T10:36:17;8.30;99.90
53844;DHT22;39744;53.314;5.710;2023-02-22T10:38:50;8.30;99.90
53844;DHT22;39744;53.314;5.710;2023-02-22T10:41:32;8.30;99.90
53844;DHT22;39744;53.314;5.710;2023-02-22T10:44:00;8.40;99.90
53844;DHT22;39744;53.314;5.710;2023-02-22T10:46:27;8.30;99.90
53844;DHT22;39744;53.314;5.710;2023-02-22T10:48:56;8.40;99.90
53844;DHT22;39744;53.314;5.710;2023-02-22T10:51:27;8.50;99.90
53844;DHT22;39744;53.314;5.710;2023-02-22T10:56:50;8.60;99.90
53844;DHT22;39744;53.314;5.710;2023-02-22T10:59:36;8.60;99.90
53844;DHT22;39744;53.314;5.710;2023-02-22T11:02:24;8.50;99.90
53844;DHT22;39744;53.314;5.710;2023-02-22T11:04:54;8.60;99.90
53844;DHT22;39744;53.314;5.710;2023-02-22T11:07:34;8.60;99.90
53844;DHT22;39744;53.314;5.710;2023-02-22T11:10:05;8.60;99.90
53844;DHT22;39744;53.314;5.710;2023-02-22T11:12:40;8.60;99.90
53844;DHT22;39744;53.314;5.710;2023-02-22T11:17:50;8.70;99.90
53844;DHT22;39744;53.314;5.710;2023-02-22T11:20:22;8.70;99.90
53844;DHT22;39744;53.314;5.710;2023-02-22T11:22:52;8.70;99.90
53844;DHT22;39744;53.314;5.710;2023-02-22T11:25:22;8.70;99.90
53844;DHT22;39744;53.314;5.710;2023-02-22T11:27:49;8.70;99.90
53844;DHT22;39744;53.314;5.710;2023-02-22T11:30:31;8.70;99.90
53844;DHT22;39744;53.314;5.710;2023-02-22T11:35:57;8.80;99.90
53844;DHT22;39744;53.314;5.710;2023-02-22T11:38:29;8.80;99.90
53844;DHT22;39744;53.314;5.710;2023-02-22T11:41:10;8.80;99.90
53844;DHT22;39744;53.314;5.710;2023-02-22T11:43:36;8.80;99.90
53844;DHT22;39744;53.314;5.710;2023-02-22T11:46:14;8.90;99.90
53844;DHT22;39744;53.314;5.710;2023-02-22T11:48:55;8.90;99.90
53844;DHT22;39744;53.314;5.710;2023-02-22T11:57:07;9.10;99.90
53844;DHT22;39744;53.314;5.710;2023-02-22T12:05:43;9.30;99.90
53844;DHT22;39744;53.314;5.710;2023-02-22T12:11:18;9.50;99.90
53844;DHT22;39744;53.314;5.710;2023-02-22T12:13:49;9.60;99.90
53844;DHT22;39744;53.314;5.710;2023-02-22T12:19:43;9.70;99.90
53844;DHT22;39744;53.314;5.710;2023-02-22T12:22:32;9.70;99.90
53844;DHT22;39744;53.314;5.710;2023-02-22T12:25:05;9.70;99.90
53844;DHT22;39744;53.314;5.710;2023-02-22T12:27:54;9.70;99.90
53844;DHT22;39744;53.314;5.710;2023-02-22T12:30:25;9.70;99.90
53844;DHT22;39744;53.314;5.710;2023-02-22T12:32:56;9.70;99.90
53844;DHT22;39744;53.314;5.710;2023-02-22T12:35:29;9.60;99.90
53844;DHT22;39744;53.314;5.710;2023-02-22T12:38:04;9.60;99.90
53844;DHT22;39744;53.314;5.710;2023-02-22T12:40:47;9.70;99.90
53844;DHT22;39744;53.314;5.710;2023-02-22T12:43:31;9.70;99.90
53844;DHT22;39744;53.314;5.710;2023-02-22T12:46:05;9.70;99.90
53844;DHT22;39744;53.314;5.710;2023-02-22T12:51:33;9.60;99.90
53844;DHT22;39744;53.314;5.710;2023-02-22T12:54:11;9.50;99.90
53844;DHT22;39744;53.314;5.710;2023-02-22T12:56:49;9.40;99.90
53844;DHT22;39744;53.314;5.710;2023-02-22T12:59:34;9.40;99.90
53844;DHT22;39744;53.314;5.710;2023-02-22T13:02:16;9.40;99.90
53844;DHT22;39744;53.314;5.710;2023-02-22T13:04:43;9.40;99.90
53844;DHT22;39744;53.314;5.710;2023-02-22T13:10:19;9.30;99.90
53844;DHT22;39744;53.314;5.710;2023-02-22T13:21:43;8.90;99.90
53844;DHT22;39744;53.314;5.710;2023-02-22T13:24:25;9.00;99.90
53844;DHT22;39744;53.314;5.710;2023-02-22T13:26:58;9.00;99.90
53844;DHT22;39744;53.314;5.710;2023-02-22T13:29:41;9.00;99.90
53844;DHT22;39744;53.314;5.710;2023-02-22T13:35:46;8.90;99.90
53844;DHT22;39744;53.314;5.710;2023-02-22T13:41:15;8.80;99.90
53844;DHT22;39744;53.314;5.710;2023-02-22T13:44:09;8.70;99.90
53844;DHT22;39744;53.314;5.710;2023-02-22T13:47:04;8.70;99.90
53844;DHT22;39744;53.314;5.710;2023-02-22T13:52:22;8.60;99.90
53844;DHT22;39744;53.314;5.710;2023-02-22T13:54:55;8.60;99.90
53844;DHT22;39744;53.314;5.710;2023-02-22T13:57:28;8.60;99.90
53844;DHT22;39744;53.314;5.710;2023-02-22T14:10:59;8.60;99.90
53844;DHT22;39744;53.314;5.710;2023-02-22T14:13:27;8.60;99.90
53844;DHT22;39744;53.314;5.710;2023-02-22T14:21:06;8.70;99.90
53844;DHT22;39744;53.314;5.710;2023-02-22T14:23:48;8.70;99.90
53844;DHT22;39744;53.314;5.710;2023-02-22T14:26:32;8.70;99.90
53844;DHT22;39744;53.314;5.710;2023-02-22T14:31:32;8.80;99.90
53844;DHT22;39744;53.314;5.710;2023-02-22T14:34:11;8.80;99.90
53844;DHT22;39744;53.314;5.710;2023-02-22T14:39:32;8.80;99.90
53844;DHT22;39744;53.314;5.710;2023-02-22T14:42:04;8.80;99.90
53844;DHT22;39744;53.314;5.710;2023-02-22T14:47:17;8.70;99.90
53844;DHT22;39744;53.314;5.710;2023-02-22T14:49:48;8.70;99.90
53844;DHT22;39744;53.314;5.710;2023-02-22T14:52:27;8.80;99.90
53844;DHT22;39744;53.314;5.710;2023-02-22T14:55:10;8.80;99.90
53844;DHT22;39744;53.314;5.710;2023-02-22T14:58:01;8.80;99.90
53844;DHT22;39744;53.314;5.710;2023-02-22T15:00:38;8.80;99.90
53844;DHT22;39744;53.314;5.710;2023-02-22T15:03:31;8.80;99.90
53844;DHT22;39744;53.314;5.710;2023-02-22T15:06:22;8.80;99.90
53844;DHT22;39744;53.314;5.710;2023-02-22T15:09:05;8.80;99.90
53844;DHT22;39744;53.314;5.710;2023-02-22T15:11:31;8.80;99.90
53844;DHT22;39744;53.314;5.710;2023-02-22T15:13:59;8.80;99.90
53844;DHT22;39744;53.314;5.710;2023-02-22T15:16:27;8.70;99.90
53844;DHT22;39744;53.314;5.710;2023-02-22T15:18:56;8.70;99.90
53844;DHT22;39744;53.314;5.710;2023-02-22T15:21:25;8.70;99.90
53844;DHT22;39744;53.314;5.710;2023-02-22T15:24:03;8.70;99.90
53844;DHT22;39744;53.314;5.710;2023-02-22T15:26:38;8.70;99.90
53844;DHT22;39744;53.314;5.710;2023-02-22T15:29:18;8.70;99.90
53844;DHT22;39744;53.314;5.710;2023-02-22T15:31:44;8.60;99.90
53844;DHT22;39744;53.314;5.710;2023-02-22T15:36:45;8.60;99.90
53844;DHT22;39744;53.314;5.710;2023-02-22T15:39:20;8.60;99.90
53844;DHT22;39744;53.314;5.710;2023-02-22T15:44:40;8.50;99.90
53844;DHT22;39744;53.314;5.710;2023-02-22T15:47:20;8.50;99.90
53844;DHT22;39744;53.314;5.710;2023-02-22T15:53:16;8.50;99.90
53844;DHT22;39744;53.314;5.710;2023-02-22T15:55:48;8.40;99.90
53844;DHT22;39744;53.314;5.710;2023-02-22T15:58:22;8.40;99.90
53844;DHT22;39744;53.314;5.710;2023-02-22T16:03:25;8.40;99.90
53844;DHT22;39744;53.314;5.710;2023-02-22T16:05:58;8.30;99.90
53844;DHT22;39744;53.314;5.710;2023-02-22T16:08:35;8.30;99.90
53844;DHT22;39744;53.314;5.710;2023-02-22T16:11:07;8.30;99.90
53844;DHT22;39744;53.314;5.710;2023-02-22T16:13:41;8.30;99.90
53844;DHT22;39744;53.314;5.710;2023-02-22T16:18:45;8.20;99.90
53844;DHT22;39744;53.314;5.710;2023-02-22T16:21:13;8.20;99.90
53844;DHT22;39744;53.314;5.710;2023-02-22T16:23:50;8.20;99.90
53844;DHT22;39744;53.314;5.710;2023-02-22T16:26:59;8.10;99.90
53844;DHT22;39744;53.314;5.710;2023-02-22T16:29:26;8.10;99.90
53844;DHT22;39744;53.314;5.710;2023-02-22T16:31:51;8.00;99.90
53844;DHT22;39744;53.314;5.710;2023-02-22T16:34:17;8.00;99.90
53844;DHT22;39744;53.314;5.710;2023-02-22T16:36:44;8.00;99.90
53844;DHT22;39744;53.314;5.710;2023-02-22T16:39:31;8.00;99.90
53844;DHT22;39744;53.314;5.710;2023-02-22T16:42:02;7.90;99.90
53844;DHT22;39744;53.314;5.710;2023-02-22T16:44:28;7.90;99.90
53844;DHT22;39744;53.314;5.710;2023-02-22T16:46:56;7.90;99.90
53844;DHT22;39744;53.314;5.710;2023-02-22T16:49:23;7.90;99.90
53844;DHT22;39744;53.314;5.710;2023-02-22T16:54:39;7.80;99.90
53844;DHT22;39744;53.314;5.710;2023-02-22T16:57:05;7.80;99.90
53844;DHT22;39744;53.314;5.710;2023-02-22T16:59:36;7.70;99.90
53844;DHT22;39744;53.314;5.710;2023-02-22T17:02:03;7.70;99.90
53844;DHT22;39744;53.314;5.710;2023-02-22T17:04:32;7.70;99.90
53844;DHT22;39744;53.314;5.710;2023-02-22T17:06:58;7.70;99.90
53844;DHT22;39744;53.314;5.710;2023-02-22T17:09:24;7.60;99.90
53844;DHT22;39744;53.314;5.710;2023-02-22T17:11:51;7.60;99.90
53844;DHT22;39744;53.314;5.710;2023-02-22T17:14:19;7.50;99.90
53844;DHT22;39744;53.314;5.710;2023-02-22T17:16:48;7.50;99.90
53844;DHT22;39744;53.314;5.710;2023-02-22T17:19:20;7.50;99.90
53844;DHT22;39744;53.314;5.710;2023-02-22T17:21:46;7.40;99.90
53844;DHT22;39744;53.314;5.710;2023-02-22T17:24:14;7.40;99.90
53844;DHT22;39744;53.314;5.710;2023-02-22T17:26:41;7.40;99.90
53844;DHT22;39744;53.314;5.710;2023-02-22T17:29:07;7.40;99.90
53844;DHT22;39744;53.314;5.710;2023-02-22T17:31:33;7.40;99.90
53844;DHT22;39744;53.314;5.710;2023-02-22T17:34:01;7.30;99.90
53844;DHT22;39744;53.314;5.710;2023-02-22T17:36:28;7.30;99.90
53844;DHT22;39744;53.314;5.710;2023-02-22T17:38:54;7.30;99.90
53844;DHT22;39744;53.314;5.710;2023-02-22T17:41:20;7.30;99.90
53844;DHT22;39744;53.314;5.710;2023-02-22T17:43:45;7.30;99.90
53844;DHT22;39744;53.314;5.710;2023-02-22T17:46:11;7.40;99.90
53844;DHT22;39744;53.314;5.710;2023-02-22T17:48:37;7.30;99.90
53844;DHT22;39744;53.314;5.710;2023-02-22T17:51:09;7.40;99.90
53844;DHT22;39744;53.314;5.710;2023-02-22T17:53:35;7.40;99.90
53844;DHT22;39744;53.314;5.710;2023-02-22T17:56:06;7.40;99.90
53844;DHT22;39744;53.314;5.710;2023-02-22T17:58:32;7.30;99.90
53844;DHT22;39744;53.314;5.710;2023-02-22T18:00:58;7.30;99.90
53844;DHT22;39744;53.314;5.710;2023-02-22T18:03:24;7.30;99.90
53844;DHT22;39744;53.314;5.710;2023-02-22T18:05:52;7.30;99.90
53844;DHT22;39744;53.314;5.710;2023-02-22T18:08:18;7.30;99.90
53844;DHT22;39744;53.314;5.710;2023-02-22T18:10:45;7.30;99.90
53844;DHT22;39744;53.314;5.710;2023-02-22T18:13:15;7.30;99.90
53844;DHT22;39744;53.314;5.710;2023-02-22T18:15:43;7.30;99.90
53844;DHT22;39744;53.314;5.710;2023-02-22T18:18:10;7.30;99.90